Pass A Grille Beach, Florida
Current Conditions -  °F | °C
As of 4:53 AM on Friday 24 Oct 2014 (Local Time) from KSPG Reporting Station
Clear Clear  
Wind Chill: 70°   Ceiling: Unl
Heat Index: 70°   Visibility: 10mi
Dew Point: 61°   Wind: 20mph
Humidity: 73%   Direction: 70°ENE
Pressure: 29.93"   Gusts: NA
Location:  27.7355°N, 82.7065°W
Report Text: KSPG 240853Z AUTO 07017KT 10SM CLR 21/16 A2993 RMK AO2 SLP134 T02110161 56011
Loading
Personal Weather Stations






























Interactive Weather Map
Tropical Storm Tracking
New forecast layout! Learn more

10-Day Weather Forecast

Advertisements
Track Severe Weather on mobile